createdAt,value
2019-01-18T00:00:37.942Z,1.87
2019-01-18T00:01:22.842Z,1.87
2019-01-18T00:01:55.830Z,1.87
2019-01-18T00:02:32.182Z,1.87
2019-01-18T00:03:05.428Z,1.87
2019-01-18T00:03:38.628Z,1.87
2019-01-18T00:04:11.728Z,1.87
2019-01-18T00:04:44.815Z,1.87
2019-01-18T00:05:17.760Z,1.87
2019-01-18T00:05:51.132Z,1.87
2019-01-18T00:06:24.234Z,1.87
2019-01-18T00:06:57.342Z,1.87
2019-01-18T00:07:30.233Z,1.87
2019-01-18T00:08:04.282Z,1.87
2019-01-18T00:08:37.430Z,1.87
2019-01-18T00:09:10.459Z,1.87
2019-01-18T00:09:43.612Z,1.81
2019-01-18T00:10:16.691Z,1.81
2019-01-18T00:10:49.802Z,1.81
2019-01-18T00:11:22.830Z,1.81
2019-01-18T00:11:55.949Z,1.81
2019-01-18T00:12:28.986Z,1.81
2019-01-18T00:13:01.992Z,1.81
2019-01-18T00:13:35.061Z,1.75
2019-01-18T00:14:08.058Z,1.75
2019-01-18T00:14:41.090Z,1.75
2019-01-18T00:15:14.223Z,1.81
2019-01-18T00:15:47.251Z,1.81
2019-01-18T00:16:20.235Z,1.81
2019-01-18T00:16:53.301Z,1.81
2019-01-18T00:17:26.650Z,1.75
2019-01-18T00:17:59.686Z,1.75
2019-01-18T00:18:32.685Z,1.75
2019-01-18T00:19:05.744Z,1.75
2019-01-18T00:19:38.757Z,1.75
2019-01-18T00:20:12.482Z,1.75
2019-01-18T00:20:45.592Z,1.75
2019-01-18T00:21:18.645Z,1.75
2019-01-18T00:21:52.845Z,1.69
2019-01-18T00:22:25.984Z,1.69
2019-01-18T00:22:59.093Z,1.69
2019-01-18T00:23:32.237Z,1.69
2019-01-18T00:24:05.587Z,1.69
2019-01-18T00:24:38.736Z,1.75
2019-01-18T00:25:11.877Z,1.75
2019-01-18T00:25:44.940Z,1.69
2019-01-18T00:26:17.845Z,1.69
2019-01-18T00:26:50.779Z,1.69
2019-01-18T00:27:23.929Z,1.69
2019-01-18T00:27:57.001Z,1.69
2019-01-18T00:28:31.113Z,1.62
2019-01-18T00:29:04.916Z,1.62
2019-01-18T00:29:37.927Z,1.56
2019-01-18T00:30:11.126Z,1.50
2019-01-18T00:30:44.133Z,1.50
2019-01-18T00:31:17.169Z,1.50
2019-01-18T00:31:50.157Z,1.44
2019-01-18T00:32:23.103Z,1.44
2019-01-18T00:32:55.955Z,1.44
2019-01-18T00:33:28.933Z,1.44
2019-01-18T00:34:02.005Z,1.44
2019-01-18T00:34:35.110Z,1.44
2019-01-18T00:35:08.241Z,1.44
2019-01-18T00:35:41.331Z,1.44
2019-01-18T00:36:14.539Z,1.37
2019-01-18T00:36:47.511Z,1.31
2019-01-18T00:37:20.713Z,1.25
2019-01-18T00:37:53.670Z,1.19
2019-01-18T00:38:26.641Z,1.12
2019-01-18T00:38:59.700Z,1.06
2019-01-18T00:39:32.903Z,1.00
2019-01-18T00:40:07.353Z,0.94
2019-01-18T00:40:40.315Z,0.88
2019-01-18T00:41:13.475Z,0.81
2019-01-18T00:41:46.469Z,0.75
2019-01-18T00:42:19.565Z,0.75
2019-01-18T00:42:52.632Z,0.75
2019-01-18T00:43:25.637Z,0.75
2019-01-18T00:43:58.599Z,0.75
2019-01-18T00:44:31.700Z,0.75
2019-01-18T00:45:07.503Z,0.75
2019-01-18T00:45:42.208Z,0.75
2019-01-18T00:46:15.215Z,0.75
2019-01-18T00:46:48.265Z,0.81
2019-01-18T00:47:21.360Z,0.81
2019-01-18T00:47:54.535Z,0.81
2019-01-18T00:48:27.793Z,0.81
2019-01-18T00:49:00.915Z,0.81
2019-01-18T00:49:33.970Z,0.81
2019-01-18T00:50:11.101Z,0.81
2019-01-18T00:50:44.301Z,0.75
2019-01-18T00:51:17.351Z,0.75
2019-01-18T00:51:50.464Z,0.75
2019-01-18T00:52:23.516Z,0.69
2019-01-18T00:52:56.593Z,0.62
2019-01-18T00:53:30.069Z,0.56
2019-01-18T00:54:04.915Z,0.56
2019-01-18T00:54:38.105Z,0.50
2019-01-18T00:55:11.733Z,0.44
2019-01-18T00:55:44.803Z,0.37
2019-01-18T00:56:17.987Z,0.37
2019-01-18T00:56:51.035Z,0.31
2019-01-18T00:57:24.066Z,0.25
2019-01-18T00:57:57.172Z,0.19
2019-01-18T00:58:30.218Z,0.19
2019-01-18T00:59:03.713Z,0.13
2019-01-18T00:59:36.785Z,0.13
2019-01-18T01:00:20.891Z,0.06
2019-01-18T01:00:54.092Z,0.00
2019-01-18T01:01:27.264Z,0.00
2019-01-18T01:02:00.330Z,-0.06
2019-01-18T01:02:33.363Z,-0.06
2019-01-18T01:03:06.685Z,-0.13
2019-01-18T01:03:39.653Z,-0.13
2019-01-18T01:04:12.846Z,-0.13
2019-01-18T01:04:45.890Z,-0.19
2019-01-18T01:05:19.712Z,-0.19
2019-01-18T01:05:52.643Z,-0.25
2019-01-18T01:06:25.829Z,-0.25
2019-01-18T01:06:59.992Z,-0.25
2019-01-18T01:07:33.181Z,-0.25
2019-01-18T01:08:06.333Z,-0.31
2019-01-18T01:08:39.375Z,-0.31
2019-01-18T01:09:12.453Z,-0.31
2019-01-18T01:09:45.426Z,-0.37
2019-01-18T01:10:20.087Z,-0.44
2019-01-18T01:10:53.161Z,-0.44
2019-01-18T01:11:26.222Z,-0.44
2019-01-18T01:12:00.787Z,-0.50
2019-01-18T01:12:33.951Z,-0.50
2019-01-18T01:13:07.097Z,-0.56
2019-01-18T01:13:43.974Z,-0.56
2019-01-18T01:14:16.959Z,-0.56
2019-01-18T01:14:50.177Z,-0.62
2019-01-18T01:15:24.509Z,-0.62
2019-01-18T01:15:57.565Z,-0.62
2019-01-18T01:16:30.929Z,-0.62
2019-01-18T01:17:04.493Z,-0.69
2019-01-18T01:17:37.537Z,-0.69
2019-01-18T01:18:10.780Z,-0.69
2019-01-18T01:18:44.686Z,-0.75
2019-01-18T01:19:17.896Z,-0.75
2019-01-18T01:19:51.054Z,-0.75
2019-01-18T01:20:24.109Z,-0.81
2019-01-18T01:20:57.298Z,-0.81
2019-01-18T01:21:30.435Z,-0.81
2019-01-18T01:22:03.575Z,-0.81
2019-01-18T01:22:36.722Z,-0.81
2019-01-18T01:23:09.890Z,-0.88
2019-01-18T01:23:42.934Z,-0.88
2019-01-18T01:24:15.986Z,-0.88
2019-01-18T01:24:49.035Z,-0.88
2019-01-18T01:25:22.355Z,-0.94
2019-01-18T01:25:55.410Z,-0.94
2019-01-18T01:26:28.613Z,-0.94
2019-01-18T01:27:01.822Z,-0.94
2019-01-18T01:27:34.925Z,-0.94
2019-01-18T01:28:08.012Z,-0.94
2019-01-18T01:28:41.070Z,-1.00
2019-01-18T01:29:14.112Z,-1.00
2019-01-18T01:29:47.177Z,-1.00
2019-01-18T01:30:23.164Z,-1.00
2019-01-18T01:30:56.217Z,-1.06
2019-01-18T01:31:29.338Z,-1.06
2019-01-18T01:32:02.736Z,-1.06
2019-01-18T01:32:35.870Z,-1.06
2019-01-18T01:33:09.118Z,-1.06
2019-01-18T01:33:42.288Z,-1.12
2019-01-18T01:34:15.304Z,-1.12
2019-01-18T01:34:48.298Z,-1.12
2019-01-18T01:35:21.451Z,-1.12
2019-01-18T01:35:54.555Z,-1.12
2019-01-18T01:36:27.602Z,-1.12
2019-01-18T01:37:00.625Z,-1.12
2019-01-18T01:37:33.734Z,-1.19
2019-01-18T01:38:06.894Z,-1.19
2019-01-18T01:38:40.072Z,-1.19
2019-01-18T01:39:13.146Z,-1.19
2019-01-18T01:39:46.289Z,-1.19
2019-01-18T01:40:22.910Z,-1.19
2019-01-18T01:40:55.959Z,-1.19
2019-01-18T01:41:29.358Z,-1.19
2019-01-18T01:42:02.485Z,-1.19
2019-01-18T01:42:35.584Z,-1.19
2019-01-18T01:43:08.616Z,-1.19
2019-01-18T01:43:41.693Z,-1.25
2019-01-18T01:44:14.724Z,-1.25
2019-01-18T01:44:47.744Z,-1.25
2019-01-18T01:45:21.183Z,-1.25
2019-01-18T01:45:54.156Z,-1.25
2019-01-18T01:46:27.190Z,-1.31
2019-01-18T01:47:00.087Z,-1.31
2019-01-18T01:47:33.042Z,-1.31
2019-01-18T01:48:06.172Z,-1.31
2019-01-18T01:48:39.230Z,-1.31
2019-01-18T01:49:12.224Z,-1.31
2019-01-18T01:49:45.286Z,-1.31
2019-01-18T01:50:21.627Z,-1.37
2019-01-18T01:50:54.670Z,-1.31
2019-01-18T01:51:27.681Z,-1.31
2019-01-18T01:52:00.715Z,-1.37
2019-01-18T01:52:33.870Z,-1.31
2019-01-18T01:53:07.002Z,-1.31
2019-01-18T01:53:40.210Z,-1.31
2019-01-18T01:54:13.183Z,-1.37
2019-01-18T01:54:46.647Z,-1.37
2019-01-18T01:55:19.768Z,-1.37
2019-01-18T01:55:52.954Z,-1.31
2019-01-18T01:56:26.457Z,-1.37
2019-01-18T01:56:59.584Z,-1.37
2019-01-18T01:57:32.774Z,-1.37
2019-01-18T01:58:05.890Z,-1.37
2019-01-18T01:58:38.984Z,-1.37
2019-01-18T01:59:12.124Z,-1.44
2019-01-18T01:59:49.794Z,-1.44
2019-01-18T02:00:23.566Z,-1.44
2019-01-18T02:00:56.491Z,-1.44
2019-01-18T02:01:29.636Z,-1.50
2019-01-18T02:02:02.782Z,-1.50
2019-01-18T02:02:35.859Z,-1.50
2019-01-18T02:03:08.912Z,-1.50
2019-01-18T02:03:41.930Z,-1.50
2019-01-18T02:04:14.940Z,-1.50
2019-01-18T02:04:49.110Z,-1.50
2019-01-18T02:05:22.250Z,-1.50
2019-01-18T02:05:55.461Z,-1.50
2019-01-18T02:06:28.490Z,-1.50
2019-01-18T02:07:01.547Z,-1.50
2019-01-18T02:07:34.572Z,-1.56
2019-01-18T02:08:07.653Z,-1.56
2019-01-18T02:08:40.576Z,-1.56
2019-01-18T02:09:13.700Z,-1.56
2019-01-18T02:09:46.690Z,-1.56
2019-01-18T02:10:19.752Z,-1.56
2019-01-18T02:10:52.738Z,-1.62
2019-01-18T02:11:25.942Z,-1.62
2019-01-18T02:11:58.862Z,-1.62
2019-01-18T02:12:31.818Z,-1.62
2019-01-18T02:13:04.818Z,-1.62
2019-01-18T02:13:37.790Z,-1.62
2019-01-18T02:14:10.804Z,-1.62
2019-01-18T02:14:43.786Z,-1.62
2019-01-18T02:15:19.742Z,-1.69
2019-01-18T02:15:52.856Z,-1.69
2019-01-18T02:16:26.978Z,-1.69
2019-01-18T02:17:00.533Z,-1.69
2019-01-18T02:17:33.554Z,-1.69
2019-01-18T02:18:06.598Z,-1.69
2019-01-18T02:18:39.636Z,-1.69
2019-01-18T02:19:12.786Z,-1.69
2019-01-18T02:19:45.973Z,-1.69
2019-01-18T02:20:20.433Z,-1.69
2019-01-18T02:20:53.480Z,-1.69
2019-01-18T02:21:26.623Z,-1.69
2019-01-18T02:21:59.716Z,-1.69
2019-01-18T02:22:32.751Z,-1.69
2019-01-18T02:23:05.830Z,-1.75
2019-01-18T02:23:38.798Z,-1.75
2019-01-18T02:24:11.872Z,-1.75
2019-01-18T02:24:45.751Z,-1.75
2019-01-18T02:25:18.877Z,-1.75
2019-01-18T02:25:51.806Z,-1.75
2019-01-18T02:26:24.858Z,-1.75
2019-01-18T02:26:57.936Z,-1.75
2019-01-18T02:27:31.111Z,-1.75
2019-01-18T02:28:04.258Z,-1.75
2019-01-18T02:28:39.009Z,-1.75
2019-01-18T02:29:12.028Z,-1.75
2019-01-18T02:29:45.200Z,-1.81
2019-01-18T02:30:24.974Z,-1.81
2019-01-18T02:30:58.030Z,-1.81
2019-01-18T02:31:31.090Z,-1.81
2019-01-18T02:32:04.238Z,-1.81
2019-01-18T02:32:37.372Z,-1.81
2019-01-18T02:33:10.518Z,-1.81
2019-01-18T02:33:43.675Z,-1.81
2019-01-18T02:34:16.844Z,-1.87
2019-01-18T02:34:49.908Z,-1.87
2019-01-18T02:35:23.180Z,-1.87
2019-01-18T02:35:56.202Z,-1.87
2019-01-18T02:36:29.248Z,-1.87
2019-01-18T02:37:03.320Z,-1.87
2019-01-18T02:37:36.369Z,-1.94
2019-01-18T02:38:09.574Z,-1.94
2019-01-18T02:38:42.558Z,-1.94
2019-01-18T02:39:15.724Z,-1.94
2019-01-18T02:39:48.926Z,-1.94
2019-01-18T02:40:22.233Z,-1.94
2019-01-18T02:40:55.262Z,-1.94
2019-01-18T02:41:29.859Z,-1.94
2019-01-18T02:42:03.004Z,-1.94
2019-01-18T02:42:36.068Z,-1.94
2019-01-18T02:43:09.028Z,-1.94
2019-01-18T02:43:43.663Z,-1.94
2019-01-18T02:44:16.720Z,-1.94
2019-01-18T02:44:49.674Z,-1.94
2019-01-18T02:45:23.028Z,-1.94
2019-01-18T02:45:56.115Z,-1.94
2019-01-18T02:46:29.150Z,-1.94
2019-01-18T02:47:02.325Z,-1.94
2019-01-18T02:47:35.411Z,-1.94
2019-01-18T02:48:08.390Z,-1.94
2019-01-18T02:48:41.370Z,-1.94
2019-01-18T02:49:14.322Z,-1.94
2019-01-18T02:49:47.398Z,-1.94
2019-01-18T02:50:20.534Z,-1.94
2019-01-18T02:50:53.601Z,-2.00
2019-01-18T02:51:26.720Z,-2.00
2019-01-18T02:51:59.812Z,-2.00
2019-01-18T02:52:32.782Z,-2.00
2019-01-18T02:53:05.943Z,-2.00
2019-01-18T02:53:38.918Z,-2.00
2019-01-18T02:54:11.963Z,-2.00
2019-01-18T02:54:44.844Z,-2.00
2019-01-18T02:55:17.982Z,-2.00
2019-01-18T02:55:50.968Z,-2.00
2019-01-18T02:56:23.920Z,-2.00
2019-01-18T02:56:57.037Z,-2.00
2019-01-18T02:57:29.986Z,-2.00
2019-01-18T02:58:03.005Z,-2.00
2019-01-18T02:58:35.930Z,-2.00
2019-01-18T02:59:08.810Z,-2.00
2019-01-18T02:59:41.875Z,-2.00
2019-01-18T03:00:21.032Z,-2.00
2019-01-18T03:00:53.976Z,-2.00
2019-01-18T03:01:26.966Z,-2.00
2019-01-18T03:01:59.933Z,-2.00
2019-01-18T03:02:32.913Z,-2.00
2019-01-18T03:03:05.874Z,-2.00
2019-01-18T03:03:39.892Z,-2.00
2019-01-18T03:04:14.956Z,-2.00
2019-01-18T03:04:47.959Z,-2.06
2019-01-18T03:05:24.764Z,-2.06
2019-01-18T03:05:58.881Z,-2.06
2019-01-18T03:06:32.025Z,-2.06
2019-01-18T03:07:05.149Z,-2.06
2019-01-18T03:07:38.305Z,-2.06
2019-01-18T03:08:11.420Z,-2.06
2019-01-18T03:08:44.576Z,-2.06
2019-01-18T03:09:17.585Z,-2.06
2019-01-18T03:09:50.599Z,-2.06
2019-01-18T03:10:28.948Z,-2.06
2019-01-18T03:11:01.956Z,-2.06
2019-01-18T03:11:35.095Z,-2.06
2019-01-18T03:12:08.117Z,-2.06
2019-01-18T03:12:42.159Z,-2.06
2019-01-18T03:13:15.104Z,-2.06
2019-01-18T03:13:48.149Z,-2.06
2019-01-18T03:14:21.159Z,-2.06
2019-01-18T03:14:54.101Z,-2.06
2019-01-18T03:15:27.103Z,-2.06
2019-01-18T03:16:00.127Z,-2.06
2019-01-18T03:16:33.073Z,-2.06
2019-01-18T03:17:06.069Z,-2.06
2019-01-18T03:17:40.801Z,-2.06
2019-01-18T03:18:13.880Z,-2.06
2019-01-18T03:18:46.921Z,-2.06
2019-01-18T03:19:19.842Z,-2.06
2019-01-18T03:19:52.976Z,-2.06
2019-01-18T03:20:26.103Z,-2.06
2019-01-18T03:20:59.106Z,-2.06
2019-01-18T03:21:32.149Z,-2.06
2019-01-18T03:22:05.267Z,-2.06
2019-01-18T03:22:38.367Z,-2.06
2019-01-18T03:23:11.535Z,-2.06
2019-01-18T03:23:44.465Z,-2.06
2019-01-18T03:24:17.381Z,-2.06
2019-01-18T03:24:50.306Z,-2.06
2019-01-18T03:25:26.810Z,-2.06
2019-01-18T03:25:59.942Z,-2.06
2019-01-18T03:26:33.075Z,-2.06
2019-01-18T03:27:06.179Z,-2.12
2019-01-18T03:27:39.285Z,-2.06
2019-01-18T03:28:12.441Z,-2.06
2019-01-18T03:28:45.481Z,-2.06
2019-01-18T03:29:18.461Z,-2.06
2019-01-18T03:29:51.639Z,-2.06
2019-01-18T03:30:24.744Z,-2.06
2019-01-18T03:30:57.735Z,-2.06
2019-01-18T03:31:30.771Z,-2.06
2019-01-18T03:32:04.185Z,-2.06
2019-01-18T03:32:37.273Z,-2.06
2019-01-18T03:33:10.207Z,-2.06
2019-01-18T03:33:43.222Z,-2.06
2019-01-18T03:34:16.255Z,-2.06
2019-01-18T03:34:49.157Z,-2.06
2019-01-18T03:35:23.015Z,-2.06
2019-01-18T03:35:56.681Z,-2.06
2019-01-18T03:36:29.704Z,-2.06
2019-01-18T03:37:02.890Z,-2.06
2019-01-18T03:37:35.785Z,-2.06
2019-01-18T03:38:08.813Z,-2.06
2019-01-18T03:38:41.821Z,-2.06
2019-01-18T03:39:14.855Z,-2.06
2019-01-18T03:39:47.792Z,-2.00
2019-01-18T03:40:21.027Z,-2.00
2019-01-18T03:40:53.918Z,-2.00
2019-01-18T03:41:27.001Z,-2.00
2019-01-18T03:42:01.727Z,-2.00
2019-01-18T03:42:34.781Z,-2.00
2019-01-18T03:43:08.007Z,-2.00
2019-01-18T03:43:41.096Z,-2.00
2019-01-18T03:44:14.261Z,-2.00
2019-01-18T03:44:47.435Z,-2.00
2019-01-18T03:45:20.538Z,-2.00
2019-01-18T03:45:53.523Z,-2.00
2019-01-18T03:46:26.716Z,-2.00
2019-01-18T03:46:59.779Z,-2.00
2019-01-18T03:47:32.833Z,-2.00
2019-01-18T03:48:05.904Z,-2.00
2019-01-18T03:48:39.095Z,-2.00
2019-01-18T03:49:12.085Z,-2.00
2019-01-18T03:49:45.164Z,-2.00
2019-01-18T03:50:21.669Z,-2.00
2019-01-18T03:50:54.612Z,-2.06
2019-01-18T03:51:27.508Z,-2.00
2019-01-18T03:52:00.485Z,-2.00
2019-01-18T03:52:35.189Z,-2.06
2019-01-18T03:53:08.231Z,-2.00
2019-01-18T03:53:41.338Z,-2.06
2019-01-18T03:54:14.431Z,-2.06
2019-01-18T03:54:47.435Z,-2.06
2019-01-18T03:55:20.575Z,-2.06
2019-01-18T03:55:53.619Z,-2.00
2019-01-18T03:56:26.811Z,-2.06
2019-01-18T03:56:59.803Z,-2.00
2019-01-18T03:57:32.966Z,-2.06
2019-01-18T03:58:06.047Z,-2.06
2019-01-18T03:58:39.143Z,-2.00
2019-01-18T03:59:20.121Z,-2.06
2019-01-18T03:59:53.143Z,-2.00
2019-01-18T04:00:28.964Z,-2.00
2019-01-18T04:01:02.006Z,-2.06
2019-01-18T04:01:35.117Z,-2.00
2019-01-18T04:02:08.300Z,-2.00
2019-01-18T04:02:41.285Z,-2.00
2019-01-18T04:03:14.320Z,-2.00
2019-01-18T04:03:47.232Z,-2.00
2019-01-18T04:04:20.304Z,-2.00
2019-01-18T04:04:53.310Z,-2.00
2019-01-18T04:05:26.663Z,-2.00
2019-01-18T04:05:59.685Z,-2.00
2019-01-18T04:06:32.772Z,-2.06
2019-01-18T04:07:05.758Z,-2.06
2019-01-18T04:07:39.986Z,-2.06
2019-01-18T04:08:13.078Z,-2.06
2019-01-18T04:08:46.123Z,-2.06
2019-01-18T04:09:19.025Z,-2.06
2019-01-18T04:09:52.058Z,-2.06
2019-01-18T04:10:25.200Z,-2.06
2019-01-18T04:10:58.266Z,-2.06
2019-01-18T04:11:31.171Z,-2.06
2019-01-18T04:12:04.564Z,-2.06
2019-01-18T04:12:37.669Z,-2.00
2019-01-18T04:13:10.723Z,-2.00
2019-01-18T04:13:43.879Z,-2.00
2019-01-18T04:14:16.950Z,-2.00
2019-01-18T04:14:49.946Z,-2.00
2019-01-18T04:15:23.892Z,-2.00
2019-01-18T04:15:56.991Z,-2.00
2019-01-18T04:16:30.528Z,-1.94
2019-01-18T04:17:03.631Z,-2.00
2019-01-18T04:17:36.686Z,-1.94
2019-01-18T04:18:09.584Z,-1.94
2019-01-18T04:18:42.558Z,-1.94
2019-01-18T04:19:15.450Z,-2.00
2019-01-18T04:19:48.417Z,-2.00
2019-01-18T04:20:21.834Z,-1.94
2019-01-18T04:20:54.792Z,-2.00
2019-01-18T04:21:27.807Z,-2.00
2019-01-18T04:22:00.900Z,-2.00
2019-01-18T04:22:34.011Z,-2.00
2019-01-18T04:23:07.042Z,-1.94
2019-01-18T04:23:40.023Z,-1.94
2019-01-18T04:24:13.117Z,-1.94
2019-01-18T04:24:46.007Z,-1.94
2019-01-18T04:25:21.890Z,-1.94
2019-01-18T04:25:54.863Z,-1.94
2019-01-18T04:26:27.808Z,-1.94
2019-01-18T04:27:01.032Z,-1.94
2019-01-18T04:27:34.072Z,-1.94
2019-01-18T04:28:07.050Z,-1.94
2019-01-18T04:28:40.118Z,-2.00
2019-01-18T04:29:13.129Z,-2.00
2019-01-18T04:29:46.007Z,-2.00
2019-01-18T04:30:20.554Z,-2.00
2019-01-18T04:30:53.621Z,-2.00
2019-01-18T04:31:26.602Z,-2.00
2019-01-18T04:31:59.749Z,-2.00
2019-01-18T04:32:32.757Z,-2.00
2019-01-18T04:33:05.695Z,-2.00
2019-01-18T04:33:39.261Z,-2.00
2019-01-18T04:34:12.208Z,-2.00
2019-01-18T04:34:45.224Z,-2.00
2019-01-18T04:35:18.416Z,-2.00
2019-01-18T04:35:51.693Z,-2.00
2019-01-18T04:36:24.636Z,-2.00
2019-01-18T04:36:57.655Z,-2.00
2019-01-18T04:37:30.636Z,-2.00
2019-01-18T04:38:03.622Z,-2.00
2019-01-18T04:38:36.794Z,-2.00
2019-01-18T04:39:09.683Z,-2.00
2019-01-18T04:39:42.636Z,-2.06
2019-01-18T04:40:23.820Z,-2.00
2019-01-18T04:40:57.890Z,-2.00
2019-01-18T04:41:30.880Z,-2.00
2019-01-18T04:42:04.107Z,-2.00
2019-01-18T04:42:36.880Z,-2.00
2019-01-18T04:43:10.030Z,-2.00
2019-01-18T04:43:43.066Z,-2.00
2019-01-18T04:44:16.248Z,-2.00
2019-01-18T04:44:49.262Z,-2.00
2019-01-18T04:45:23.358Z,-2.00
2019-01-18T04:45:56.482Z,-2.00
2019-01-18T04:46:29.500Z,-2.00
2019-01-18T04:47:02.796Z,-2.00
2019-01-18T04:47:35.758Z,-2.00
2019-01-18T04:48:08.977Z,-2.00
2019-01-18T04:48:41.919Z,-2.00
2019-01-18T04:49:15.026Z,-2.00
2019-01-18T04:49:47.988Z,-2.00
2019-01-18T04:50:23.608Z,-2.00
2019-01-18T04:50:56.869Z,-2.00
2019-01-18T04:51:31.470Z,-1.94
2019-01-18T04:52:04.634Z,-1.94
2019-01-18T04:52:37.774Z,-1.94
2019-01-18T04:53:10.867Z,-1.94
2019-01-18T04:53:43.910Z,-2.00
2019-01-18T04:54:17.099Z,-2.00
2019-01-18T04:54:50.019Z,-2.00
2019-01-18T04:55:23.409Z,-2.00
2019-01-18T04:55:56.578Z,-2.00
2019-01-18T04:56:29.642Z,-2.00
2019-01-18T04:57:02.950Z,-2.00
2019-01-18T04:57:36.138Z,-2.00
2019-01-18T04:58:09.161Z,-2.00
2019-01-18T04:58:42.264Z,-2.00
2019-01-18T04:59:15.332Z,-2.00
2019-01-18T04:59:49.362Z,-2.00
2019-01-18T05:00:25.534Z,-2.00
2019-01-18T05:00:58.623Z,-2.00
2019-01-18T05:01:31.699Z,-2.00
2019-01-18T05:02:04.863Z,-2.00
2019-01-18T05:02:38.038Z,-2.00
2019-01-18T05:03:11.091Z,-2.06
2019-01-18T05:03:44.156Z,-2.06
2019-01-18T05:04:17.510Z,-2.06
2019-01-18T05:04:51.638Z,-2.06
2019-01-18T05:05:24.781Z,-2.06
2019-01-18T05:05:58.813Z,-2.06
2019-01-18T05:06:31.871Z,-2.06
2019-01-18T05:07:05.035Z,-2.06
2019-01-18T05:07:38.080Z,-2.06
2019-01-18T05:08:11.154Z,-2.06
2019-01-18T05:08:44.094Z,-2.06
2019-01-18T05:09:17.091Z,-2.00
2019-01-18T05:09:49.952Z,-2.06
2019-01-18T05:10:25.412Z,-2.06
2019-01-18T05:10:58.456Z,-2.06
2019-01-18T05:11:31.425Z,-2.06
2019-01-18T05:12:04.629Z,-2.06
2019-01-18T05:12:37.679Z,-2.00
2019-01-18T05:13:10.646Z,-2.00
2019-01-18T05:13:43.879Z,-2.00
2019-01-18T05:14:17.041Z,-2.00
2019-01-18T05:14:50.082Z,-2.00
2019-01-18T05:15:26.558Z,-2.00
2019-01-18T05:16:00.637Z,-2.00
2019-01-18T05:16:34.418Z,-2.00
2019-01-18T05:17:07.445Z,-2.00
2019-01-18T05:17:40.934Z,-2.00
2019-01-18T05:18:14.011Z,-2.00
2019-01-18T05:18:47.866Z,-2.00
2019-01-18T05:19:20.874Z,-2.00
2019-01-18T05:19:54.079Z,-2.00
2019-01-18T05:20:27.199Z,-2.00
2019-01-18T05:21:00.308Z,-2.00
2019-01-18T05:21:33.375Z,-2.00
2019-01-18T05:22:06.533Z,-2.00
2019-01-18T05:22:39.627Z,-2.00
2019-01-18T05:23:12.776Z,-2.00
2019-01-18T05:23:45.851Z,-2.00
2019-01-18T05:24:18.888Z,-2.00
2019-01-18T05:24:51.957Z,-2.00
2019-01-18T05:25:25.036Z,-2.00
2019-01-18T05:25:58.100Z,-2.00
2019-01-18T05:26:31.126Z,-2.00
2019-01-18T05:27:04.302Z,-2.00
2019-01-18T05:27:37.452Z,-2.00
2019-01-18T05:28:10.619Z,-2.00
2019-01-18T05:28:43.709Z,-2.00
2019-01-18T05:29:16.712Z,-2.00
2019-01-18T05:29:49.835Z,-2.00
2019-01-18T05:30:27.895Z,-2.00
2019-01-18T05:31:01.110Z,-2.06
2019-01-18T05:31:34.295Z,-2.06
2019-01-18T05:32:08.464Z,-2.00
2019-01-18T05:32:41.636Z,-2.06
2019-01-18T05:33:14.595Z,-2.06
2019-01-18T05:33:47.636Z,-2.00
2019-01-18T05:34:20.551Z,-2.00
2019-01-18T05:34:53.643Z,-2.00
2019-01-18T05:35:28.153Z,-2.06
2019-01-18T05:36:01.203Z,-2.00
2019-01-18T05:36:34.191Z,-2.00
2019-01-18T05:37:07.354Z,-2.00
2019-01-18T05:37:40.386Z,-2.00
2019-01-18T05:38:13.465Z,-2.00
2019-01-18T05:38:46.551Z,-2.00
2019-01-18T05:39:19.645Z,-2.00
2019-01-18T05:39:53.907Z,-2.00
2019-01-18T05:40:27.039Z,-2.00
2019-01-18T05:40:59.981Z,-2.00
2019-01-18T05:41:33.059Z,-2.00
2019-01-18T05:42:06.047Z,-2.00
2019-01-18T05:42:39.140Z,-2.00
2019-01-18T05:43:12.147Z,-2.00
2019-01-18T05:43:45.189Z,-2.00
2019-01-18T05:44:18.193Z,-2.00
2019-01-18T05:44:51.245Z,-2.00
2019-01-18T05:45:24.183Z,-2.00
2019-01-18T05:45:57.332Z,-2.00
2019-01-18T05:46:30.211Z,-2.00
2019-01-18T05:47:03.624Z,-2.00
2019-01-18T05:47:36.742Z,-2.00
2019-01-18T05:48:09.722Z,-2.00
2019-01-18T05:48:43.514Z,-2.00
2019-01-18T05:49:16.567Z,-2.00
2019-01-18T05:49:49.579Z,-2.00
2019-01-18T05:50:28.330Z,-2.00
2019-01-18T05:51:01.307Z,-2.00
2019-01-18T05:51:34.373Z,-2.00
2019-01-18T05:52:07.291Z,-2.00
2019-01-18T05:52:40.577Z,-2.00
2019-01-18T05:53:13.709Z,-2.00
2019-01-18T05:53:46.820Z,-2.00
2019-01-18T05:54:19.838Z,-2.00
2019-01-18T05:54:52.887Z,-2.00
2019-01-18T05:55:25.930Z,-2.00
2019-01-18T05:55:59.057Z,-2.00
2019-01-18T05:56:32.181Z,-2.00
2019-01-18T05:57:05.296Z,-2.06
2019-01-18T05:57:38.403Z,-2.06
2019-01-18T05:58:11.545Z,-2.00
2019-01-18T05:58:44.649Z,-2.00
2019-01-18T05:59:17.805Z,-2.06
2019-01-18T05:59:50.877Z,-2.00
2019-01-18T06:00:39.770Z,-2.06
2019-01-18T06:01:13.649Z,-2.00
2019-01-18T06:01:46.815Z,-2.00
2019-01-18T06:02:19.940Z,-2.00
2019-01-18T06:02:52.898Z,-2.00
2019-01-18T06:03:25.995Z,-2.00
2019-01-18T06:03:59.179Z,-2.00
2019-01-18T06:04:32.354Z,-2.06
2019-01-18T06:05:08.922Z,-2.06
2019-01-18T06:05:43.169Z,-2.06
2019-01-18T06:06:16.125Z,-2.06
2019-01-18T06:06:49.172Z,-2.06
2019-01-18T06:07:22.183Z,-2.06
2019-01-18T06:07:55.247Z,-2.06
2019-01-18T06:08:28.319Z,-2.06
2019-01-18T06:09:01.468Z,-2.06
2019-01-18T06:09:34.526Z,-2.06
2019-01-18T06:10:07.746Z,-2.06
2019-01-18T06:10:40.845Z,-2.06
2019-01-18T06:11:14.081Z,-2.06
2019-01-18T06:11:47.139Z,-2.06
2019-01-18T06:12:20.162Z,-2.06
2019-01-18T06:12:53.213Z,-2.06
2019-01-18T06:13:26.245Z,-2.06
2019-01-18T06:13:59.268Z,-2.06
2019-01-18T06:14:32.532Z,-2.12
2019-01-18T06:15:05.958Z,-2.12
2019-01-18T06:15:40.487Z,-2.12
2019-01-18T06:16:13.831Z,-2.12
2019-01-18T06:16:46.929Z,-2.12
2019-01-18T06:17:20.078Z,-2.12
2019-01-18T06:17:53.200Z,-2.12
2019-01-18T06:18:26.387Z,-2.12
2019-01-18T06:18:59.509Z,-2.12
2019-01-18T06:19:32.647Z,-2.12
2019-01-18T06:20:06.414Z,-2.12
2019-01-18T06:20:39.446Z,-2.12
2019-01-18T06:21:14.007Z,-2.12
2019-01-18T06:21:47.061Z,-2.12
2019-01-18T06:22:20.096Z,-2.12
2019-01-18T06:22:53.262Z,-2.19
2019-01-18T06:23:26.301Z,-2.19
2019-01-18T06:23:59.460Z,-2.19
2019-01-18T06:24:33.959Z,-2.19
2019-01-18T06:25:07.109Z,-2.19
2019-01-18T06:25:40.507Z,-2.19
2019-01-18T06:26:13.643Z,-2.19
2019-01-18T06:26:46.660Z,-2.19
2019-01-18T06:27:19.694Z,-2.19
2019-01-18T06:27:52.961Z,-2.19
2019-01-18T06:28:26.008Z,-2.19
2019-01-18T06:28:59.061Z,-2.12
2019-01-18T06:29:32.082Z,-2.19
2019-01-18T06:30:11.482Z,-2.12
2019-01-18T06:30:44.410Z,-2.12
2019-01-18T06:31:17.405Z,-2.19
2019-01-18T06:31:50.541Z,-2.19
2019-01-18T06:32:23.663Z,-2.19
2019-01-18T06:32:56.795Z,-2.19
2019-01-18T06:33:30.050Z,-2.19
2019-01-18T06:34:03.177Z,-2.19
2019-01-18T06:34:37.206Z,-2.19
2019-01-18T06:35:10.452Z,-2.19
2019-01-18T06:35:43.434Z,-2.19
2019-01-18T06:36:16.468Z,-2.19
2019-01-18T06:36:49.402Z,-2.19
2019-01-18T06:37:22.438Z,-2.19
2019-01-18T06:37:55.459Z,-2.19
2019-01-18T06:38:28.599Z,-2.19
2019-01-18T06:39:01.749Z,-2.19
2019-01-18T06:39:35.403Z,-2.25
2019-01-18T06:40:11.111Z,-2.19
2019-01-18T06:40:45.352Z,-2.19
2019-01-18T06:41:27.436Z,-2.19
2019-01-18T06:42:00.266Z,-2.19
2019-01-18T06:42:33.302Z,-2.19
2019-01-18T06:43:06.454Z,-2.25
2019-01-18T06:43:39.408Z,-2.19
2019-01-18T06:44:14.122Z,-2.25
2019-01-18T06:44:47.158Z,-2.25
2019-01-18T06:45:20.810Z,-2.25
2019-01-18T06:45:53.754Z,-2.25
2019-01-18T06:46:26.671Z,-2.25
2019-01-18T06:46:59.718Z,-2.19
2019-01-18T06:47:32.814Z,-2.25
2019-01-18T06:48:06.382Z,-2.25
2019-01-18T06:48:39.559Z,-2.19
2019-01-18T06:49:13.849Z,-2.19
2019-01-18T06:49:46.808Z,-2.19
2019-01-18T06:50:19.991Z,-2.19
2019-01-18T06:50:53.071Z,-2.19
2019-01-18T06:51:26.133Z,-2.19
2019-01-18T06:51:59.299Z,-2.19
2019-01-18T06:52:32.442Z,-2.19
2019-01-18T06:53:05.646Z,-2.19
2019-01-18T06:53:38.627Z,-2.19
2019-01-18T06:54:11.616Z,-2.19
2019-01-18T06:54:44.806Z,-2.19
2019-01-18T06:55:17.860Z,-2.19
2019-01-18T06:55:50.816Z,-2.19
2019-01-18T06:56:23.747Z,-2.19
2019-01-18T06:56:56.907Z,-2.19
2019-01-18T06:57:30.950Z,-2.19
2019-01-18T06:58:04.115Z,-2.19
2019-01-18T06:58:37.256Z,-2.19
2019-01-18T06:59:10.364Z,-2.19
2019-01-18T06:59:44.814Z,-2.19
2019-01-18T07:00:32.353Z,-2.19
2019-01-18T07:01:08.581Z,-2.12
2019-01-18T07:01:40.422Z,-2.12
2019-01-18T07:02:13.554Z,-2.12
2019-01-18T07:02:46.858Z,-2.12
2019-01-18T07:03:20.005Z,-2.12
2019-01-18T07:03:53.226Z,-2.06
2019-01-18T07:04:26.363Z,-2.12
2019-01-18T07:04:59.292Z,-2.12
2019-01-18T07:05:32.342Z,-2.06
2019-01-18T07:06:05.360Z,-2.06
2019-01-18T07:06:38.440Z,-2.06
2019-01-18T07:07:11.520Z,-2.06
2019-01-18T07:07:48.846Z,-2.06
2019-01-18T07:08:21.866Z,-2.00
2019-01-18T07:08:55.040Z,-2.00
2019-01-18T07:09:28.147Z,-2.00
2019-01-18T07:10:01.217Z,-2.00
2019-01-18T07:10:34.223Z,-2.00
2019-01-18T07:11:08.260Z,-1.94
2019-01-18T07:11:41.426Z,-1.94
2019-01-18T07:12:14.543Z,-1.94
2019-01-18T07:12:47.562Z,-1.94